sensor_id;sensor_type;location;lat;lon;timestamp;P1;durP1;ratioP1;P2;durP2;ratioP2
10725;SDS011;5414;59.782;16.378;2023-11-21T00:01:01;3.97;;;3.57;;
10725;SDS011;5414;59.782;16.378;2023-11-21T00:03:28;3.33;;;3.03;;
10725;SDS011;5414;59.782;16.378;2023-11-21T00:05:55;3.43;;;3.13;;
10725;SDS011;5414;59.782;16.378;2023-11-21T00:08:20;3.33;;;3.03;;
10725;SDS011;5414;59.782;16.378;2023-11-21T00:10:46;3.43;;;3.13;;
10725;SDS011;5414;59.782;16.378;2023-11-21T00:13:13;3.33;;;3.00;;
10725;SDS011;5414;59.782;16.378;2023-11-21T00:15:39;3.47;;;3.17;;
10725;SDS011;5414;59.782;16.378;2023-11-21T00:18:05;3.53;;;3.23;;
10725;SDS011;5414;59.782;16.378;2023-11-21T00:20:31;3.17;;;2.87;;
10725;SDS011;5414;59.782;16.378;2023-11-21T00:22:57;5.27;;;3.70;;
10725;SDS011;5414;59.782;16.378;2023-11-21T00:25:22;4.73;;;2.60;;
10725;SDS011;5414;59.782;16.378;2023-11-21T00:27:49;3.20;;;2.90;;
10725;SDS011;5414;59.782;16.378;2023-11-21T00:30:15;4.00;;;3.60;;
10725;SDS011;5414;59.782;16.378;2023-11-21T00:32:40;3.53;;;3.20;;
10725;SDS011;5414;59.782;16.378;2023-11-21T00:35:06;3.50;;;3.20;;
10725;SDS011;5414;59.782;16.378;2023-11-21T00:37:32;3.50;;;3.07;;
10725;SDS011;5414;59.782;16.378;2023-11-21T00:39:58;3.23;;;2.90;;
10725;SDS011;5414;59.782;16.378;2023-11-21T00:42:23;4.23;;;3.27;;
10725;SDS011;5414;59.782;16.378;2023-11-21T00:44:49;2.83;;;2.53;;
10725;SDS011;5414;59.782;16.378;2023-11-21T00:47:15;4.00;;;2.93;;
10725;SDS011;5414;59.782;16.378;2023-11-21T00:49:40;2.63;;;2.43;;
10725;SDS011;5414;59.782;16.378;2023-11-21T00:52:06;5.30;;;2.73;;
10725;SDS011;5414;59.782;16.378;2023-11-21T00:54:32;2.63;;;2.43;;
10725;SDS011;5414;59.782;16.378;2023-11-21T00:56:58;3.10;;;2.77;;
10725;SDS011;5414;59.782;16.378;2023-11-21T00:59:24;2.93;;;2.60;;
10725;SDS011;5414;59.782;16.378;2023-11-21T01:01:50;2.67;;;2.47;;
10725;SDS011;5414;59.782;16.378;2023-11-21T01:04:16;2.60;;;2.40;;
10725;SDS011;5414;59.782;16.378;2023-11-21T01:06:42;2.53;;;2.33;;
10725;SDS011;5414;59.782;16.378;2023-11-21T01:09:08;2.70;;;2.50;;
10725;SDS011;5414;59.782;16.378;2023-11-21T01:11:34;2.30;;;2.10;;
10725;SDS011;5414;59.782;16.378;2023-11-21T01:14:01;2.23;;;2.03;;
10725;SDS011;5414;59.782;16.378;2023-11-21T01:16:28;2.27;;;2.07;;
10725;SDS011;5414;59.782;16.378;2023-11-21T01:18:54;2.20;;;2.00;;
10725;SDS011;5414;59.782;16.378;2023-11-21T01:21:19;2.40;;;2.20;;
10725;SDS011;5414;59.782;16.378;2023-11-21T01:23:45;2.50;;;2.30;;
10725;SDS011;5414;59.782;16.378;2023-11-21T01:26:12;2.17;;;2.00;;
10725;SDS011;5414;59.782;16.378;2023-11-21T01:28:38;2.63;;;2.20;;
10725;SDS011;5414;59.782;16.378;2023-11-21T01:31:03;2.23;;;2.03;;
10725;SDS011;5414;59.782;16.378;2023-11-21T01:33:29;2.30;;;2.10;;
10725;SDS011;5414;59.782;16.378;2023-11-21T01:35:55;1.90;;;1.80;;
10725;SDS011;5414;59.782;16.378;2023-11-21T01:38:21;2.77;;;2.43;;
10725;SDS011;5414;59.782;16.378;2023-11-21T01:40:47;2.20;;;2.00;;
10725;SDS011;5414;59.782;16.378;2023-11-21T01:43:14;1.97;;;1.87;;
10725;SDS011;5414;59.782;16.378;2023-11-21T01:45:40;2.30;;;1.97;;
10725;SDS011;5414;59.782;16.378;2023-11-21T01:48:05;2.07;;;1.87;;
10725;SDS011;5414;59.782;16.378;2023-11-21T01:50:32;2.00;;;1.80;;
10725;SDS011;5414;59.782;16.378;2023-11-21T01:52:58;1.93;;;1.77;;
10725;SDS011;5414;59.782;16.378;2023-11-21T01:55:26;2.07;;;1.83;;
10725;SDS011;5414;59.782;16.378;2023-11-21T01:57:52;2.07;;;1.87;;
10725;SDS011;5414;59.782;16.378;2023-11-21T02:00:19;2.10;;;1.87;;
10725;SDS011;5414;59.782;16.378;2023-11-21T02:02:45;2.10;;;1.90;;
10725;SDS011;5414;59.782;16.378;2023-11-21T02:05:12;2.10;;;1.90;;
10725;SDS011;5414;59.782;16.378;2023-11-21T02:07:39;1.70;;;1.60;;
10725;SDS011;5414;59.782;16.378;2023-11-21T02:10:06;1.73;;;1.50;;
10725;SDS011;5414;59.782;16.378;2023-11-21T02:12:32;1.57;;;1.47;;
10725;SDS011;5414;59.782;16.378;2023-11-21T02:15:00;1.90;;;1.70;;
10725;SDS011;5414;59.782;16.378;2023-11-21T02:17:34;1.60;;;1.50;;
10725;SDS011;5414;59.782;16.378;2023-11-21T02:20:03;1.80;;;1.70;;
10725;SDS011;5414;59.782;16.378;2023-11-21T02:22:31;1.63;;;1.53;;
10725;SDS011;5414;59.782;16.378;2023-11-21T02:25:05;1.50;;;1.40;;
10725;SDS011;5414;59.782;16.378;2023-11-21T02:27:32;1.53;;;1.43;;
10725;SDS011;5414;59.782;16.378;2023-11-21T02:29:58;1.60;;;1.50;;
10725;SDS011;5414;59.782;16.378;2023-11-21T02:32:25;1.83;;;1.57;;
10725;SDS011;5414;59.782;16.378;2023-11-21T02:34:51;1.60;;;1.40;;
10725;SDS011;5414;59.782;16.378;2023-11-21T02:37:17;1.50;;;1.33;;
10725;SDS011;5414;59.782;16.378;2023-11-21T02:39:42;2.40;;;1.73;;
10725;SDS011;5414;59.782;16.378;2023-11-21T02:42:08;1.40;;;1.30;;
10725;SDS011;5414;59.782;16.378;2023-11-21T02:44:34;2.23;;;1.40;;
10725;SDS011;5414;59.782;16.378;2023-11-21T02:46:59;1.60;;;1.50;;
10725;SDS011;5414;59.782;16.378;2023-11-21T02:49:25;1.30;;;1.20;;
10725;SDS011;5414;59.782;16.378;2023-11-21T02:51:53;1.37;;;1.27;;
10725;SDS011;5414;59.782;16.378;2023-11-21T02:54:20;1.30;;;1.20;;
10725;SDS011;5414;59.782;16.378;2023-11-21T02:56:47;1.50;;;1.40;;
10725;SDS011;5414;59.782;16.378;2023-11-21T02:59:14;1.50;;;1.30;;
10725;SDS011;5414;59.782;16.378;2023-11-21T03:01:40;1.43;;;1.33;;
10725;SDS011;5414;59.782;16.378;2023-11-21T03:04:06;1.30;;;1.20;;
10725;SDS011;5414;59.782;16.378;2023-11-21T03:06:32;1.50;;;1.40;;
10725;SDS011;5414;59.782;16.378;2023-11-21T03:08:58;1.50;;;1.17;;
10725;SDS011;5414;59.782;16.378;2023-11-21T03:11:24;1.50;;;1.40;;
10725;SDS011;5414;59.782;16.378;2023-11-21T03:13:50;1.50;;;1.40;;
10725;SDS011;5414;59.782;16.378;2023-11-21T03:16:16;1.50;;;1.40;;
10725;SDS011;5414;59.782;16.378;2023-11-21T03:18:42;1.40;;;1.30;;
10725;SDS011;5414;59.782;16.378;2023-11-21T03:21:07;1.40;;;1.30;;
10725;SDS011;5414;59.782;16.378;2023-11-21T03:23:34;1.30;;;1.20;;
10725;SDS011;5414;59.782;16.378;2023-11-21T03:26:00;1.50;;;1.40;;
10725;SDS011;5414;59.782;16.378;2023-11-21T03:28:26;1.37;;;1.27;;
10725;SDS011;5414;59.782;16.378;2023-11-21T03:30:53;1.33;;;1.23;;
10725;SDS011;5414;59.782;16.378;2023-11-21T03:33:18;1.40;;;1.30;;
10725;SDS011;5414;59.782;16.378;2023-11-21T03:35:44;1.30;;;1.20;;
10725;SDS011;5414;59.782;16.378;2023-11-21T03:38:10;1.23;;;1.13;;
10725;SDS011;5414;59.782;16.378;2023-11-21T03:40:36;1.13;;;1.03;;
10725;SDS011;5414;59.782;16.378;2023-11-21T03:43:01;1.37;;;1.27;;
10725;SDS011;5414;59.782;16.378;2023-11-21T03:45:27;1.20;;;1.10;;
10725;SDS011;5414;59.782;16.378;2023-11-21T03:47:53;1.47;;;1.30;;
10725;SDS011;5414;59.782;16.378;2023-11-21T03:50:18;1.30;;;1.20;;
10725;SDS011;5414;59.782;16.378;2023-11-21T03:52:44;1.23;;;1.13;;
10725;SDS011;5414;59.782;16.378;2023-11-21T03:55:09;1.10;;;1.00;;
10725;SDS011;5414;59.782;16.378;2023-11-21T03:57:35;1.10;;;1.00;;
10725;SDS011;5414;59.782;16.378;2023-11-21T04:00:01;1.33;;;1.20;;
10725;SDS011;5414;59.782;16.378;2023-11-21T04:02:29;1.33;;;1.23;;
10725;SDS011;5414;59.782;16.378;2023-11-21T04:04:56;1.30;;;1.13;;
10725;SDS011;5414;59.782;16.378;2023-11-21T04:07:22;1.30;;;1.20;;
10725;SDS011;5414;59.782;16.378;2023-11-21T04:09:47;1.10;;;1.00;;
10725;SDS011;5414;59.782;16.378;2023-11-21T04:12:13;2.10;;;1.10;;
10725;SDS011;5414;59.782;16.378;2023-11-21T04:14:39;1.00;;;0.90;;
10725;SDS011;5414;59.782;16.378;2023-11-21T04:17:04;1.23;;;1.13;;
10725;SDS011;5414;59.782;16.378;2023-11-21T04:19:30;1.10;;;1.00;;
10725;SDS011;5414;59.782;16.378;2023-11-21T04:21:56;1.13;;;1.00;;
10725;SDS011;5414;59.782;16.378;2023-11-21T04:24:22;1.50;;;1.40;;
10725;SDS011;5414;59.782;16.378;2023-11-21T04:26:48;1.57;;;1.17;;
10725;SDS011;5414;59.782;16.378;2023-11-21T04:29:14;1.00;;;0.90;;
10725;SDS011;5414;59.782;16.378;2023-11-21T04:31:40;1.03;;;1.00;;
10725;SDS011;5414;59.782;16.378;2023-11-21T04:34:06;1.10;;;1.00;;
10725;SDS011;5414;59.782;16.378;2023-11-21T04:36:33;1.30;;;1.20;;
10725;SDS011;5414;59.782;16.378;2023-11-21T04:39:00;2.20;;;1.30;;
10725;SDS011;5414;59.782;16.378;2023-11-21T04:41:26;1.20;;;1.10;;
10725;SDS011;5414;59.782;16.378;2023-11-21T04:43:52;1.10;;;1.00;;
10725;SDS011;5414;59.782;16.378;2023-11-21T04:46:18;0.93;;;0.93;;
10725;SDS011;5414;59.782;16.378;2023-11-21T04:48:44;1.20;;;1.10;;
10725;SDS011;5414;59.782;16.378;2023-11-21T04:51:10;1.00;;;0.93;;
10725;SDS011;5414;59.782;16.378;2023-11-21T04:53:37;1.00;;;0.90;;
10725;SDS011;5414;59.782;16.378;2023-11-21T04:56:04;1.50;;;1.20;;
10725;SDS011;5414;59.782;16.378;2023-11-21T04:58:31;1.20;;;1.10;;
10725;SDS011;5414;59.782;16.378;2023-11-21T05:00:57;1.30;;;1.20;;
10725;SDS011;5414;59.782;16.378;2023-11-21T05:03:24;1.40;;;1.20;;
10725;SDS011;5414;59.782;16.378;2023-11-21T05:05:50;1.10;;;1.00;;
10725;SDS011;5414;59.782;16.378;2023-11-21T05:08:16;1.47;;;1.33;;
10725;SDS011;5414;59.782;16.378;2023-11-21T05:10:42;1.20;;;1.10;;
10725;SDS011;5414;59.782;16.378;2023-11-21T05:13:08;1.20;;;1.10;;
10725;SDS011;5414;59.782;16.378;2023-11-21T05:15:35;2.33;;;1.30;;
10725;SDS011;5414;59.782;16.378;2023-11-21T05:18:01;1.30;;;1.10;;
10725;SDS011;5414;59.782;16.378;2023-11-21T05:20:27;1.50;;;1.07;;
10725;SDS011;5414;59.782;16.378;2023-11-21T05:22:53;1.23;;;1.00;;
10725;SDS011;5414;59.782;16.378;2023-11-21T05:25:19;1.57;;;1.20;;
10725;SDS011;5414;59.782;16.378;2023-11-21T05:27:46;1.20;;;1.10;;
10725;SDS011;5414;59.782;16.378;2023-11-21T05:30:12;1.67;;;1.10;;
10725;SDS011;5414;59.782;16.378;2023-11-21T05:32:39;1.33;;;1.23;;
10725;SDS011;5414;59.782;16.378;2023-11-21T05:35:07;1.30;;;1.20;;
10725;SDS011;5414;59.782;16.378;2023-11-21T05:37:37;1.40;;;1.10;;
10725;SDS011;5414;59.782;16.378;2023-11-21T05:40:04;2.13;;;1.10;;
10725;SDS011;5414;59.782;16.378;2023-11-21T05:42:34;1.40;;;1.30;;
10725;SDS011;5414;59.782;16.378;2023-11-21T05:45:00;1.30;;;1.20;;
10725;SDS011;5414;59.782;16.378;2023-11-21T05:47:45;1.70;;;1.30;;
10725;SDS011;5414;59.782;16.378;2023-11-21T05:50:15;1.40;;;1.20;;
10725;SDS011;5414;59.782;16.378;2023-11-21T05:52:41;2.70;;;1.20;;
10725;SDS011;5414;59.782;16.378;2023-11-21T05:55:08;1.07;;;1.03;;
10725;SDS011;5414;59.782;16.378;2023-11-21T05:57:34;1.10;;;1.00;;
10725;SDS011;5414;59.782;16.378;2023-11-21T06:00:06;1.10;;;1.00;;
10725;SDS011;5414;59.782;16.378;2023-11-21T06:02:51;1.53;;;1.27;;
10725;SDS011;5414;59.782;16.378;2023-11-21T06:05:18;1.33;;;1.20;;
10725;SDS011;5414;59.782;16.378;2023-11-21T06:07:45;1.50;;;1.40;;
10725;SDS011;5414;59.782;16.378;2023-11-21T06:10:11;1.20;;;1.10;;
10725;SDS011;5414;59.782;16.378;2023-11-21T06:12:39;1.40;;;1.23;;
10725;SDS011;5414;59.782;16.378;2023-11-21T06:15:07;1.57;;;1.47;;
10725;SDS011;5414;59.782;16.378;2023-11-21T06:17:34;1.43;;;1.33;;
10725;SDS011;5414;59.782;16.378;2023-11-21T06:20:04;1.30;;;1.20;;
10725;SDS011;5414;59.782;16.378;2023-11-21T06:22:37;1.80;;;1.57;;
10725;SDS011;5414;59.782;16.378;2023-11-21T06:25:03;1.67;;;1.50;;
10725;SDS011;5414;59.782;16.378;2023-11-21T06:27:31;2.17;;;1.57;;
10725;SDS011;5414;59.782;16.378;2023-11-21T06:29:58;1.53;;;1.30;;
10725;SDS011;5414;59.782;16.378;2023-11-21T06:32:24;1.83;;;1.53;;
10725;SDS011;5414;59.782;16.378;2023-11-21T06:34:51;1.80;;;1.70;;
10725;SDS011;5414;59.782;16.378;2023-11-21T06:37:19;1.60;;;1.50;;
10725;SDS011;5414;59.782;16.378;2023-11-21T06:39:48;1.87;;;1.60;;
10725;SDS011;5414;59.782;16.378;2023-11-21T06:42:17;1.63;;;1.40;;
10725;SDS011;5414;59.782;16.378;2023-11-21T06:44:44;1.43;;;1.30;;
10725;SDS011;5414;59.782;16.378;2023-11-21T06:47:11;1.60;;;1.47;;
10725;SDS011;5414;59.782;16.378;2023-11-21T06:49:37;1.63;;;1.50;;
10725;SDS011;5414;59.782;16.378;2023-11-21T06:52:03;1.70;;;1.50;;
10725;SDS011;5414;59.782;16.378;2023-11-21T06:54:30;2.00;;;1.70;;
10725;SDS011;5414;59.782;16.378;2023-11-21T06:56:57;1.60;;;1.50;;
10725;SDS011;5414;59.782;16.378;2023-11-21T06:59:23;1.40;;;1.23;;
10725;SDS011;5414;59.782;16.378;2023-11-21T07:01:50;2.00;;;1.50;;
10725;SDS011;5414;59.782;16.378;2023-11-21T07:04:16;1.50;;;1.30;;
10725;SDS011;5414;59.782;16.378;2023-11-21T07:06:43;1.50;;;1.30;;
10725;SDS011;5414;59.782;16.378;2023-11-21T07:09:09;1.77;;;1.30;;
10725;SDS011;5414;59.782;16.378;2023-11-21T07:11:36;2.23;;;1.40;;
10725;SDS011;5414;59.782;16.378;2023-11-21T07:14:03;1.40;;;1.30;;
10725;SDS011;5414;59.782;16.378;2023-11-21T07:16:35;1.57;;;1.47;;
10725;SDS011;5414;59.782;16.378;2023-11-21T07:19:04;1.73;;;1.43;;
10725;SDS011;5414;59.782;16.378;2023-11-21T07:21:35;1.50;;;1.40;;
10725;SDS011;5414;59.782;16.378;2023-11-21T07:24:02;1.57;;;1.40;;
10725;SDS011;5414;59.782;16.378;2023-11-21T07:26:28;1.93;;;1.50;;
10725;SDS011;5414;59.782;16.378;2023-11-21T07:28:54;1.50;;;1.40;;
10725;SDS011;5414;59.782;16.378;2023-11-21T07:31:21;1.70;;;1.60;;
10725;SDS011;5414;59.782;16.378;2023-11-21T07:33:47;1.90;;;1.40;;
10725;SDS011;5414;59.782;16.378;2023-11-21T07:36:13;1.57;;;1.47;;
10725;SDS011;5414;59.782;16.378;2023-11-21T07:38:40;1.50;;;1.40;;
10725;SDS011;5414;59.782;16.378;2023-11-21T07:41:06;1.40;;;1.27;;
10725;SDS011;5414;59.782;16.378;2023-11-21T07:43:34;1.90;;;1.40;;
10725;SDS011;5414;59.782;16.378;2023-11-21T07:46:03;1.60;;;1.50;;
10725;SDS011;5414;59.782;16.378;2023-11-21T07:48:30;1.37;;;1.27;;
10725;SDS011;5414;59.782;16.378;2023-11-21T07:50:57;1.33;;;1.17;;
10725;SDS011;5414;59.782;16.378;2023-11-21T07:53:25;1.40;;;1.30;;
10725;SDS011;5414;59.782;16.378;2023-11-21T07:55:55;1.37;;;1.27;;
10725;SDS011;5414;59.782;16.378;2023-11-21T07:58:21;1.63;;;1.20;;
10725;SDS011;5414;59.782;16.378;2023-11-21T08:00:47;1.40;;;1.10;;
10725;SDS011;5414;59.782;16.378;2023-11-21T08:03:13;1.33;;;1.23;;
10725;SDS011;5414;59.782;16.378;2023-11-21T08:05:39;1.30;;;1.20;;
10725;SDS011;5414;59.782;16.378;2023-11-21T08:08:05;1.30;;;1.20;;
10725;SDS011;5414;59.782;16.378;2023-11-21T08:10:32;1.53;;;1.33;;
10725;SDS011;5414;59.782;16.378;2023-11-21T08:12:58;1.40;;;1.20;;
10725;SDS011;5414;59.782;16.378;2023-11-21T08:15:24;1.67;;;1.57;;
10725;SDS011;5414;59.782;16.378;2023-11-21T08:17:50;1.37;;;1.20;;
10725;SDS011;5414;59.782;16.378;2023-11-21T08:20:16;1.80;;;1.53;;
10725;SDS011;5414;59.782;16.378;2023-11-21T08:22:43;1.40;;;1.30;;
10725;SDS011;5414;59.782;16.378;2023-11-21T08:25:09;1.40;;;1.30;;
10725;SDS011;5414;59.782;16.378;2023-11-21T08:27:35;1.90;;;1.30;;
10725;SDS011;5414;59.782;16.378;2023-11-21T08:30:04;1.50;;;1.17;;
10725;SDS011;5414;59.782;16.378;2023-11-21T08:32:31;1.93;;;1.23;;
10725;SDS011;5414;59.782;16.378;2023-11-21T08:34:58;1.40;;;1.30;;
10725;SDS011;5414;59.782;16.378;2023-11-21T08:37:24;1.40;;;1.10;;
10725;SDS011;5414;59.782;16.378;2023-11-21T08:39:52;1.73;;;1.20;;
10725;SDS011;5414;59.782;16.378;2023-11-21T08:42:18;1.87;;;1.23;;
10725;SDS011;5414;59.782;16.378;2023-11-21T08:44:44;1.50;;;1.40;;
10725;SDS011;5414;59.782;16.378;2023-11-21T08:47:10;1.67;;;1.30;;
10725;SDS011;5414;59.782;16.378;2023-11-21T08:49:37;2.00;;;1.70;;
10725;SDS011;5414;59.782;16.378;2023-11-21T08:52:03;2.07;;;1.43;;
10725;SDS011;5414;59.782;16.378;2023-11-21T08:54:30;1.57;;;1.07;;
10725;SDS011;5414;59.782;16.378;2023-11-21T08:56:56;2.03;;;1.83;;
10725;SDS011;5414;59.782;16.378;2023-11-21T08:59:25;1.50;;;1.30;;
10725;SDS011;5414;59.782;16.378;2023-11-21T09:01:51;1.40;;;1.27;;
10725;SDS011;5414;59.782;16.378;2023-11-21T09:04:17;2.00;;;1.17;;
10725;SDS011;5414;59.782;16.378;2023-11-21T09:06:43;1.53;;;1.40;;
10725;SDS011;5414;59.782;16.378;2023-11-21T09:09:10;1.53;;;1.40;;
10725;SDS011;5414;59.782;16.378;2023-11-21T09:11:36;1.83;;;1.33;;
10725;SDS011;5414;59.782;16.378;2023-11-21T09:14:02;1.30;;;1.20;;
10725;SDS011;5414;59.782;16.378;2023-11-21T09:16:28;1.60;;;1.50;;
10725;SDS011;5414;59.782;16.378;2023-11-21T09:18:55;1.30;;;1.20;;
10725;SDS011;5414;59.782;16.378;2023-11-21T09:21:21;1.50;;;1.40;;
10725;SDS011;5414;59.782;16.378;2023-11-21T09:23:48;1.53;;;1.40;;
10725;SDS011;5414;59.782;16.378;2023-11-21T09:26:14;2.23;;;1.30;;
10725;SDS011;5414;59.782;16.378;2023-11-21T09:28:41;1.30;;;1.20;;
10725;SDS011;5414;59.782;16.378;2023-11-21T09:31:11;1.33;;;1.23;;
10725;SDS011;5414;59.782;16.378;2023-11-21T09:33:37;2.13;;;1.40;;
10725;SDS011;5414;59.782;16.378;2023-11-21T09:36:03;1.93;;;1.47;;
10725;SDS011;5414;59.782;16.378;2023-11-21T09:38:30;1.47;;;1.37;;
10725;SDS011;5414;59.782;16.378;2023-11-21T09:40:56;1.30;;;1.20;;
10725;SDS011;5414;59.782;16.378;2023-11-21T09:43:23;1.43;;;1.30;;
10725;SDS011;5414;59.782;16.378;2023-11-21T09:45:56;1.30;;;1.20;;
10725;SDS011;5414;59.782;16.378;2023-11-21T09:48:26;2.07;;;1.40;;
10725;SDS011;5414;59.782;16.378;2023-11-21T09:50:53;1.63;;;1.40;;
10725;SDS011;5414;59.782;16.378;2023-11-21T09:53:20;1.73;;;1.60;;
10725;SDS011;5414;59.782;16.378;2023-11-21T09:55:47;2.57;;;1.70;;
10725;SDS011;5414;59.782;16.378;2023-11-21T09:58:16;2.63;;;1.50;;
10725;SDS011;5414;59.782;16.378;2023-11-21T10:00:42;1.87;;;1.50;;
10725;SDS011;5414;59.782;16.378;2023-11-21T10:03:10;1.30;;;1.20;;
10725;SDS011;5414;59.782;16.378;2023-11-21T10:05:36;1.43;;;1.30;;
10725;SDS011;5414;59.782;16.378;2023-11-21T10:08:09;1.47;;;1.37;;
10725;SDS011;5414;59.782;16.378;2023-11-21T10:10:37;1.60;;;1.40;;
10725;SDS011;5414;59.782;16.378;2023-11-21T10:13:07;1.80;;;1.50;;
10725;SDS011;5414;59.782;16.378;2023-11-21T10:15:37;1.80;;;1.63;;
10725;SDS011;5414;59.782;16.378;2023-11-21T10:18:03;1.47;;;1.37;;
10725;SDS011;5414;59.782;16.378;2023-11-21T10:20:31;1.80;;;1.70;;
10725;SDS011;5414;59.782;16.378;2023-11-21T10:22:58;2.17;;;1.80;;
10725;SDS011;5414;59.782;16.378;2023-11-21T10:25:27;2.63;;;1.80;;
10725;SDS011;5414;59.782;16.378;2023-11-21T10:27:57;2.07;;;1.80;;
10725;SDS011;5414;59.782;16.378;2023-11-21T10:30:39;1.93;;;1.60;;
10725;SDS011;5414;59.782;16.378;2023-11-21T10:33:05;1.57;;;1.47;;
10725;SDS011;5414;59.782;16.378;2023-11-21T10:35:39;1.87;;;1.77;;
10725;SDS011;5414;59.782;16.378;2023-11-21T10:38:19;1.90;;;1.80;;
10725;SDS011;5414;59.782;16.378;2023-11-21T10:40:49;1.83;;;1.63;;
10725;SDS011;5414;59.782;16.378;2023-11-21T10:43:15;2.07;;;1.83;;
10725;SDS011;5414;59.782;16.378;2023-11-21T10:45:42;3.23;;;1.70;;
10725;SDS011;5414;59.782;16.378;2023-11-21T10:48:14;1.90;;;1.80;;
10725;SDS011;5414;59.782;16.378;2023-11-21T10:50:40;2.83;;;2.23;;
10725;SDS011;5414;59.782;16.378;2023-11-21T10:53:06;1.70;;;1.60;;
10725;SDS011;5414;59.782;16.378;2023-11-21T10:55:32;2.40;;;2.10;;
10725;SDS011;5414;59.782;16.378;2023-11-21T10:58:01;2.10;;;1.90;;
10725;SDS011;5414;59.782;16.378;2023-11-21T11:00:29;2.07;;;1.87;;
10725;SDS011;5414;59.782;16.378;2023-11-21T11:02:55;2.40;;;2.20;;
10725;SDS011;5414;59.782;16.378;2023-11-21T11:05:22;2.40;;;2.20;;
10725;SDS011;5414;59.782;16.378;2023-11-21T11:07:56;2.37;;;2.07;;
10725;SDS011;5414;59.782;16.378;2023-11-21T11:10:26;2.97;;;2.20;;
10725;SDS011;5414;59.782;16.378;2023-11-21T11:12:55;2.73;;;2.43;;
10725;SDS011;5414;59.782;16.378;2023-11-21T11:15:22;2.33;;;2.13;;
10725;SDS011;5414;59.782;16.378;2023-11-21T11:17:49;3.60;;;2.07;;
10725;SDS011;5414;59.782;16.378;2023-11-21T11:20:16;2.77;;;2.33;;
10725;SDS011;5414;59.782;16.378;2023-11-21T11:22:44;2.37;;;2.17;;
10725;SDS011;5414;59.782;16.378;2023-11-21T11:28:18;2.33;;;2.10;;
10725;SDS011;5414;59.782;16.378;2023-11-21T11:36:18;2.60;;;2.40;;
10725;SDS011;5414;59.782;16.378;2023-11-21T11:38:58;2.37;;;2.17;;
10725;SDS011;5414;59.782;16.378;2023-11-21T11:41:27;2.93;;;2.40;;
10725;SDS011;5414;59.782;16.378;2023-11-21T11:43:57;2.30;;;1.90;;
10725;SDS011;5414;59.782;16.378;2023-11-21T11:46:43;2.40;;;2.20;;
10725;SDS011;5414;59.782;16.378;2023-11-21T11:49:33;2.27;;;2.07;;
10725;SDS011;5414;59.782;16.378;2023-11-21T11:55:00;2.20;;;2.00;;
10725;SDS011;5414;59.782;16.378;2023-11-21T11:57:30;2.50;;;2.00;;
10725;SDS011;5414;59.782;16.378;2023-11-21T12:00:21;2.03;;;1.80;;
10725;SDS011;5414;59.782;16.378;2023-11-21T12:02:52;2.23;;;1.90;;
10725;SDS011;5414;59.782;16.378;2023-11-21T12:05:19;1.97;;;1.80;;
10725;SDS011;5414;59.782;16.378;2023-11-21T12:10:17;1.83;;;1.63;;
10725;SDS011;5414;59.782;16.378;2023-11-21T12:15:14;3.23;;;2.00;;
10725;SDS011;5414;59.782;16.378;2023-11-21T12:17:41;2.30;;;2.10;;
10725;SDS011;5414;59.782;16.378;2023-11-21T12:20:14;2.23;;;1.93;;
10725;SDS011;5414;59.782;16.378;2023-11-21T12:22:43;1.90;;;1.70;;
10725;SDS011;5414;59.782;16.378;2023-11-21T12:25:13;2.03;;;1.80;;
10725;SDS011;5414;59.782;16.378;2023-11-21T12:27:47;2.43;;;2.20;;
10725;SDS011;5414;59.782;16.378;2023-11-21T12:30:15;2.53;;;2.10;;
10725;SDS011;5414;59.782;16.378;2023-11-21T12:32:48;2.67;;;1.90;;
10725;SDS011;5414;59.782;16.378;2023-11-21T12:35:16;2.00;;;1.80;;
10725;SDS011;5414;59.782;16.378;2023-11-21T12:37:46;2.30;;;2.10;;
10725;SDS011;5414;59.782;16.378;2023-11-21T12:40:14;2.10;;;1.90;;
10725;SDS011;5414;59.782;16.378;2023-11-21T12:42:41;2.63;;;1.87;;
10725;SDS011;5414;59.782;16.378;2023-11-21T12:47:36;3.20;;;1.87;;
10725;SDS011;5414;59.782;16.378;2023-11-21T12:50:02;2.93;;;1.90;;
10725;SDS011;5414;59.782;16.378;2023-11-21T12:52:30;1.93;;;1.73;;
10725;SDS011;5414;59.782;16.378;2023-11-21T12:54:56;2.27;;;2.07;;
10725;SDS011;5414;59.782;16.378;2023-11-21T12:57:25;2.83;;;2.30;;
10725;SDS011;5414;59.782;16.378;2023-11-21T12:59:56;2.40;;;2.03;;
10725;SDS011;5414;59.782;16.378;2023-11-21T13:02:25;2.33;;;1.93;;
10725;SDS011;5414;59.782;16.378;2023-11-21T13:04:52;2.90;;;2.13;;
10725;SDS011;5414;59.782;16.378;2023-11-21T13:07:19;2.37;;;1.97;;
10725;SDS011;5414;59.782;16.378;2023-11-21T13:09:47;2.73;;;2.03;;
10725;SDS011;5414;59.782;16.378;2023-11-21T13:12:13;2.10;;;1.90;;
10725;SDS011;5414;59.782;16.378;2023-11-21T13:14:43;2.20;;;2.00;;
10725;SDS011;5414;59.782;16.378;2023-11-21T13:17:11;2.07;;;1.87;;
10725;SDS011;5414;59.782;16.378;2023-11-21T13:19:38;2.50;;;1.87;;
10725;SDS011;5414;59.782;16.378;2023-11-21T13:22:03;2.80;;;2.10;;
10725;SDS011;5414;59.782;16.378;2023-11-21T13:24:29;2.27;;;1.90;;
10725;SDS011;5414;59.782;16.378;2023-11-21T13:26:56;2.47;;;2.00;;
10725;SDS011;5414;59.782;16.378;2023-11-21T13:29:22;2.43;;;2.07;;
10725;SDS011;5414;59.782;16.378;2023-11-21T13:31:50;2.10;;;1.90;;
10725;SDS011;5414;59.782;16.378;2023-11-21T13:34:18;3.20;;;2.13;;
10725;SDS011;5414;59.782;16.378;2023-11-21T13:36:47;2.10;;;1.90;;
10725;SDS011;5414;59.782;16.378;2023-11-21T13:39:13;2.13;;;1.83;;
10725;SDS011;5414;59.782;16.378;2023-11-21T13:41:40;2.10;;;1.80;;
10725;SDS011;5414;59.782;16.378;2023-11-21T13:44:06;2.13;;;1.90;;
10725;SDS011;5414;59.782;16.378;2023-11-21T13:46:51;2.30;;;1.97;;
10725;SDS011;5414;59.782;16.378;2023-11-21T13:49:16;2.50;;;2.17;;
10725;SDS011;5414;59.782;16.378;2023-11-21T13:51:43;2.17;;;1.97;;
10725;SDS011;5414;59.782;16.378;2023-11-21T13:54:15;2.80;;;2.40;;
10725;SDS011;5414;59.782;16.378;2023-11-21T13:56:41;2.67;;;2.00;;
10725;SDS011;5414;59.782;16.378;2023-11-21T13:59:09;2.20;;;2.00;;
10725;SDS011;5414;59.782;16.378;2023-11-21T14:01:45;2.37;;;2.00;;
10725;SDS011;5414;59.782;16.378;2023-11-21T14:04:18;2.43;;;2.00;;
10725;SDS011;5414;59.782;16.378;2023-11-21T14:06:48;2.43;;;2.23;;
10725;SDS011;5414;59.782;16.378;2023-11-21T14:09:16;2.30;;;2.10;;
10725;SDS011;5414;59.782;16.378;2023-11-21T14:11:53;2.47;;;2.27;;
10725;SDS011;5414;59.782;16.378;2023-11-21T14:14:22;2.10;;;1.90;;
10725;SDS011;5414;59.782;16.378;2023-11-21T14:16:49;3.07;;;2.10;;
10725;SDS011;5414;59.782;16.378;2023-11-21T14:19:16;3.07;;;2.53;;
10725;SDS011;5414;59.782;16.378;2023-11-21T14:21:43;2.53;;;2.10;;
10725;SDS011;5414;59.782;16.378;2023-11-21T14:24:09;2.50;;;2.07;;
10725;SDS011;5414;59.782;16.378;2023-11-21T14:26:37;2.20;;;2.00;;
10725;SDS011;5414;59.782;16.378;2023-11-21T14:29:03;2.57;;;2.03;;
10725;SDS011;5414;59.782;16.378;2023-11-21T14:31:29;2.50;;;2.13;;
10725;SDS011;5414;59.782;16.378;2023-11-21T14:33:56;2.83;;;2.20;;
10725;SDS011;5414;59.782;16.378;2023-11-21T14:36:22;2.20;;;1.90;;
10725;SDS011;5414;59.782;16.378;2023-11-21T14:38:49;2.30;;;2.03;;
10725;SDS011;5414;59.782;16.378;2023-11-21T14:41:15;2.63;;;2.13;;
10725;SDS011;5414;59.782;16.378;2023-11-21T14:43:41;3.53;;;2.20;;
10725;SDS011;5414;59.782;16.378;2023-11-21T14:46:08;3.17;;;2.10;;
10725;SDS011;5414;59.782;16.378;2023-11-21T14:48:39;2.77;;;2.47;;
10725;SDS011;5414;59.782;16.378;2023-11-21T14:51:10;2.50;;;2.30;;
10725;SDS011;5414;59.782;16.378;2023-11-21T14:53:56;3.90;;;2.67;;
10725;SDS011;5414;59.782;16.378;2023-11-21T14:56:25;4.03;;;2.37;;
10725;SDS011;5414;59.782;16.378;2023-11-21T14:58:53;2.90;;;2.60;;
10725;SDS011;5414;59.782;16.378;2023-11-21T15:01:21;3.30;;;2.50;;
10725;SDS011;5414;59.782;16.378;2023-11-21T15:04:14;2.80;;;2.27;;
10725;SDS011;5414;59.782;16.378;2023-11-21T15:06:48;2.60;;;2.40;;
10725;SDS011;5414;59.782;16.378;2023-11-21T15:09:17;3.90;;;2.77;;